sensor_id;sensor_type;location;lat;lon;timestamp;P1;durP1;ratioP1;P2;durP2;ratioP2
78716;SDS011;68045;50.042;14.432;2024-02-14T00:02:22;16.85;;;7.97;;
78716;SDS011;68045;50.042;14.432;2024-02-14T00:10:26;11.55;;;6.35;;
78716;SDS011;68045;50.042;14.432;2024-02-14T00:14:28;12.90;;;5.95;;
78716;SDS011;68045;50.042;14.432;2024-02-14T00:18:28;14.75;;;7.82;;
78716;SDS011;68045;50.042;14.432;2024-02-14T00:22:30;16.85;;;6.78;;
78716;SDS011;68045;50.042;14.432;2024-02-14T00:26:32;16.92;;;7.63;;
78716;SDS011;68045;50.042;14.432;2024-02-14T00:30:33;17.70;;;6.68;;
78716;SDS011;68045;50.042;14.432;2024-02-14T00:34:35;15.98;;;6.97;;
78716;SDS011;68045;50.042;14.432;2024-02-14T00:38:36;12.27;;;5.95;;
78716;SDS011;68045;50.042;14.432;2024-02-14T00:42:37;12.07;;;6.25;;
78716;SDS011;68045;50.042;14.432;2024-02-14T00:46:37;14.23;;;6.38;;
78716;SDS011;68045;50.042;14.432;2024-02-14T00:50:41;15.75;;;7.53;;
78716;SDS011;68045;50.042;14.432;2024-02-14T00:54:42;14.15;;;7.05;;
78716;SDS011;68045;50.042;14.432;2024-02-14T00:58:43;14.60;;;5.78;;
78716;SDS011;68045;50.042;14.432;2024-02-14T01:02:44;19.48;;;7.75;;
78716;SDS011;68045;50.042;14.432;2024-02-14T01:06:45;17.15;;;6.32;;
78716;SDS011;68045;50.042;14.432;2024-02-14T01:10:46;16.88;;;7.78;;
78716;SDS011;68045;50.042;14.432;2024-02-14T01:14:47;13.32;;;5.30;;
78716;SDS011;68045;50.042;14.432;2024-02-14T01:18:48;13.52;;;6.47;;
78716;SDS011;68045;50.042;14.432;2024-02-14T01:22:49;11.23;;;6.65;;
78716;SDS011;68045;50.042;14.432;2024-02-14T01:26:50;16.75;;;7.40;;
78716;SDS011;68045;50.042;14.432;2024-02-14T01:30:52;15.77;;;6.25;;
78716;SDS011;68045;50.042;14.432;2024-02-14T01:34:53;14.27;;;5.53;;
78716;SDS011;68045;50.042;14.432;2024-02-14T01:38:54;16.90;;;7.55;;
78716;SDS011;68045;50.042;14.432;2024-02-14T01:42:55;11.77;;;5.35;;
78716;SDS011;68045;50.042;14.432;2024-02-14T01:46:56;13.38;;;7.43;;
78716;SDS011;68045;50.042;14.432;2024-02-14T01:50:57;13.52;;;7.65;;
78716;SDS011;68045;50.042;14.432;2024-02-14T01:55:00;10.88;;;6.03;;
78716;SDS011;68045;50.042;14.432;2024-02-14T01:59:00;18.15;;;6.72;;
78716;SDS011;68045;50.042;14.432;2024-02-14T02:03:03;12.45;;;6.80;;
78716;SDS011;68045;50.042;14.432;2024-02-14T02:07:04;10.45;;;5.28;;
78716;SDS011;68045;50.042;14.432;2024-02-14T02:11:05;8.57;;;4.63;;
78716;SDS011;68045;50.042;14.432;2024-02-14T02:15:06;12.38;;;5.95;;
78716;SDS011;68045;50.042;14.432;2024-02-14T02:19:11;11.13;;;5.78;;
78716;SDS011;68045;50.042;14.432;2024-02-14T02:23:12;10.38;;;4.50;;
78716;SDS011;68045;50.042;14.432;2024-02-14T02:27:15;10.07;;;4.28;;
78716;SDS011;68045;50.042;14.432;2024-02-14T02:31:17;16.85;;;6.18;;
78716;SDS011;68045;50.042;14.432;2024-02-14T02:35:18;13.45;;;5.68;;
78716;SDS011;68045;50.042;14.432;2024-02-14T02:39:23;12.45;;;6.65;;
78716;SDS011;68045;50.042;14.432;2024-02-14T02:43:24;15.45;;;5.07;;
78716;SDS011;68045;50.042;14.432;2024-02-14T02:47:24;10.60;;;5.25;;
78716;SDS011;68045;50.042;14.432;2024-02-14T02:51:25;10.82;;;5.40;;
78716;SDS011;68045;50.042;14.432;2024-02-14T02:55:28;9.75;;;5.20;;
78716;SDS011;68045;50.042;14.432;2024-02-14T02:59:29;16.17;;;8.35;;
78716;SDS011;68045;50.042;14.432;2024-02-14T03:03:29;17.33;;;7.00;;
78716;SDS011;68045;50.042;14.432;2024-02-14T03:07:34;14.85;;;6.18;;
78716;SDS011;68045;50.042;14.432;2024-02-14T03:11:34;12.98;;;6.15;;
78716;SDS011;68045;50.042;14.432;2024-02-14T03:19:39;12.85;;;5.47;;
78716;SDS011;68045;50.042;14.432;2024-02-14T03:23:41;16.45;;;5.10;;
78716;SDS011;68045;50.042;14.432;2024-02-14T03:27:41;15.88;;;6.35;;
78716;SDS011;68045;50.042;14.432;2024-02-14T03:31:43;9.57;;;4.65;;
78716;SDS011;68045;50.042;14.432;2024-02-14T03:35:44;12.73;;;5.68;;
78716;SDS011;68045;50.042;14.432;2024-02-14T03:39:45;9.30;;;5.47;;
78716;SDS011;68045;50.042;14.432;2024-02-14T03:43:47;11.10;;;5.70;;
78716;SDS011;68045;50.042;14.432;2024-02-14T03:47:51;12.88;;;5.50;;
78716;SDS011;68045;50.042;14.432;2024-02-14T03:51:52;10.73;;;5.18;;
78716;SDS011;68045;50.042;14.432;2024-02-14T03:55:55;8.98;;;4.88;;
78716;SDS011;68045;50.042;14.432;2024-02-14T03:59:57;13.68;;;6.38;;
78716;SDS011;68045;50.042;14.432;2024-02-14T04:04:01;15.50;;;5.43;;
78716;SDS011;68045;50.042;14.432;2024-02-14T04:08:02;12.00;;;5.07;;
78716;SDS011;68045;50.042;14.432;2024-02-14T04:12:03;14.23;;;5.05;;
78716;SDS011;68045;50.042;14.432;2024-02-14T04:16:05;10.85;;;6.28;;
78716;SDS011;68045;50.042;14.432;2024-02-14T04:20:06;11.77;;;5.95;;
78716;SDS011;68045;50.042;14.432;2024-02-14T04:24:07;22.25;;;5.40;;
78716;SDS011;68045;50.042;14.432;2024-02-14T04:28:08;7.43;;;4.28;;
78716;SDS011;68045;50.042;14.432;2024-02-14T04:32:12;20.60;;;6.78;;
78716;SDS011;68045;50.042;14.432;2024-02-14T04:36:13;10.63;;;4.97;;
78716;SDS011;68045;50.042;14.432;2024-02-14T04:40:15;13.90;;;5.93;;
78716;SDS011;68045;50.042;14.432;2024-02-14T04:44:16;8.73;;;4.72;;
78716;SDS011;68045;50.042;14.432;2024-02-14T04:48:18;10.27;;;5.45;;
78716;SDS011;68045;50.042;14.432;2024-02-14T04:52:18;9.30;;;6.05;;
78716;SDS011;68045;50.042;14.432;2024-02-14T04:56:19;10.73;;;5.35;;
78716;SDS011;68045;50.042;14.432;2024-02-14T05:00:20;11.18;;;5.65;;
78716;SDS011;68045;50.042;14.432;2024-02-14T05:04:22;11.43;;;5.70;;
78716;SDS011;68045;50.042;14.432;2024-02-14T05:08:23;15.45;;;6.43;;
78716;SDS011;68045;50.042;14.432;2024-02-14T05:12:24;14.52;;;6.47;;
78716;SDS011;68045;50.042;14.432;2024-02-14T05:16:25;13.70;;;5.63;;
78716;SDS011;68045;50.042;14.432;2024-02-14T05:20:26;8.73;;;4.60;;
78716;SDS011;68045;50.042;14.432;2024-02-14T05:24:27;11.80;;;5.95;;
78716;SDS011;68045;50.042;14.432;2024-02-14T05:28:30;12.00;;;6.15;;
78716;SDS011;68045;50.042;14.432;2024-02-14T05:32:31;13.07;;;5.53;;
78716;SDS011;68045;50.042;14.432;2024-02-14T05:36:33;13.98;;;5.30;;
78716;SDS011;68045;50.042;14.432;2024-02-14T05:40:35;10.43;;;5.25;;
78716;SDS011;68045;50.042;14.432;2024-02-14T05:44:40;10.15;;;5.80;;
78716;SDS011;68045;50.042;14.432;2024-02-14T05:48:41;7.80;;;4.35;;
78716;SDS011;68045;50.042;14.432;2024-02-14T05:52:42;12.18;;;5.65;;
78716;SDS011;68045;50.042;14.432;2024-02-14T05:56:43;14.20;;;6.30;;
78716;SDS011;68045;50.042;14.432;2024-02-14T06:00:44;16.25;;;6.53;;
78716;SDS011;68045;50.042;14.432;2024-02-14T06:04:46;10.73;;;5.35;;
78716;SDS011;68045;50.042;14.432;2024-02-14T06:08:47;12.68;;;6.03;;
78716;SDS011;68045;50.042;14.432;2024-02-14T06:12:48;11.10;;;5.72;;
78716;SDS011;68045;50.042;14.432;2024-02-14T06:16:50;15.40;;;6.45;;
78716;SDS011;68045;50.042;14.432;2024-02-14T06:20:51;10.85;;;4.75;;
78716;SDS011;68045;50.042;14.432;2024-02-14T06:24:52;14.52;;;7.20;;
78716;SDS011;68045;50.042;14.432;2024-02-14T06:28:53;12.68;;;6.22;;
78716;SDS011;68045;50.042;14.432;2024-02-14T06:32:55;11.20;;;5.57;;
78716;SDS011;68045;50.042;14.432;2024-02-14T06:36:57;15.93;;;5.82;;
78716;SDS011;68045;50.042;14.432;2024-02-14T06:40:58;15.55;;;7.10;;
78716;SDS011;68045;50.042;14.432;2024-02-14T06:44:59;14.10;;;7.05;;
78716;SDS011;68045;50.042;14.432;2024-02-14T06:49:01;13.48;;;6.97;;
78716;SDS011;68045;50.042;14.432;2024-02-14T06:53:03;10.32;;;3.85;;
78716;SDS011;68045;50.042;14.432;2024-02-14T06:57:04;10.10;;;5.90;;
78716;SDS011;68045;50.042;14.432;2024-02-14T07:01:05;13.73;;;6.53;;
78716;SDS011;68045;50.042;14.432;2024-02-14T07:05:06;13.27;;;6.85;;
78716;SDS011;68045;50.042;14.432;2024-02-14T07:09:10;10.80;;;5.53;;
78716;SDS011;68045;50.042;14.432;2024-02-14T07:13:12;17.35;;;7.32;;
78716;SDS011;68045;50.042;14.432;2024-02-14T07:17:14;11.68;;;6.30;;
78716;SDS011;68045;50.042;14.432;2024-02-14T07:21:16;23.27;;;6.95;;
78716;SDS011;68045;50.042;14.432;2024-02-14T07:25:17;15.27;;;5.82;;
78716;SDS011;68045;50.042;14.432;2024-02-14T07:29:18;13.68;;;6.85;;
78716;SDS011;68045;50.042;14.432;2024-02-14T07:33:19;14.73;;;7.38;;
78716;SDS011;68045;50.042;14.432;2024-02-14T07:37:21;11.23;;;6.13;;
78716;SDS011;68045;50.042;14.432;2024-02-14T07:41:22;8.77;;;5.22;;
78716;SDS011;68045;50.042;14.432;2024-02-14T07:45:24;13.23;;;6.07;;
78716;SDS011;68045;50.042;14.432;2024-02-14T07:49:25;9.07;;;4.97;;
78716;SDS011;68045;50.042;14.432;2024-02-14T07:53:26;13.18;;;6.22;;
78716;SDS011;68045;50.042;14.432;2024-02-14T07:57:29;16.45;;;6.82;;
78716;SDS011;68045;50.042;14.432;2024-02-14T08:01:30;14.98;;;7.07;;
78716;SDS011;68045;50.042;14.432;2024-02-14T08:05:33;12.80;;;6.03;;
78716;SDS011;68045;50.042;14.432;2024-02-14T08:09:34;13.90;;;7.07;;
78716;SDS011;68045;50.042;14.432;2024-02-14T08:13:35;20.00;;;7.57;;
78716;SDS011;68045;50.042;14.432;2024-02-14T08:17:37;14.60;;;6.75;;
78716;SDS011;68045;50.042;14.432;2024-02-14T08:21:38;14.63;;;7.13;;
78716;SDS011;68045;50.042;14.432;2024-02-14T08:25:39;11.20;;;6.25;;
78716;SDS011;68045;50.042;14.432;2024-02-14T08:29:41;18.13;;;7.53;;
78716;SDS011;68045;50.042;14.432;2024-02-14T08:33:42;15.93;;;6.15;;
78716;SDS011;68045;50.042;14.432;2024-02-14T08:37:43;13.02;;;6.88;;
78716;SDS011;68045;50.042;14.432;2024-02-14T08:41:44;12.98;;;6.18;;
78716;SDS011;68045;50.042;14.432;2024-02-14T08:49:48;14.02;;;5.43;;
78716;SDS011;68045;50.042;14.432;2024-02-14T08:53:49;12.88;;;6.72;;
78716;SDS011;68045;50.042;14.432;2024-02-14T08:57:55;16.95;;;6.38;;
78716;SDS011;68045;50.042;14.432;2024-02-14T09:01:57;15.10;;;7.07;;
78716;SDS011;68045;50.042;14.432;2024-02-14T09:05:58;19.00;;;7.50;;
78716;SDS011;68045;50.042;14.432;2024-02-14T09:14:03;12.75;;;6.30;;
78716;SDS011;68045;50.042;14.432;2024-02-14T09:18:06;13.98;;;6.05;;
78716;SDS011;68045;50.042;14.432;2024-02-14T09:22:07;12.43;;;6.30;;
78716;SDS011;68045;50.042;14.432;2024-02-14T09:26:08;16.23;;;7.03;;
78716;SDS011;68045;50.042;14.432;2024-02-14T09:30:09;16.08;;;5.63;;
78716;SDS011;68045;50.042;14.432;2024-02-14T09:34:11;10.50;;;4.85;;
78716;SDS011;68045;50.042;14.432;2024-02-14T09:38:12;13.77;;;5.47;;
78716;SDS011;68045;50.042;14.432;2024-02-14T09:42:15;13.55;;;6.03;;
78716;SDS011;68045;50.042;14.432;2024-02-14T09:46:20;12.90;;;4.97;;
78716;SDS011;68045;50.042;14.432;2024-02-14T09:50:26;10.77;;;5.25;;
78716;SDS011;68045;50.042;14.432;2024-02-14T09:54:31;13.07;;;5.68;;
78716;SDS011;68045;50.042;14.432;2024-02-14T09:58:38;9.48;;;4.43;;
78716;SDS011;68045;50.042;14.432;2024-02-14T10:02:41;10.45;;;5.13;;
78716;SDS011;68045;50.042;14.432;2024-02-14T10:06:45;8.50;;;4.28;;
78716;SDS011;68045;50.042;14.432;2024-02-14T10:10:46;12.00;;;4.78;;
78716;SDS011;68045;50.042;14.432;2024-02-14T10:14:47;8.35;;;4.55;;
78716;SDS011;68045;50.042;14.432;2024-02-14T10:18:48;6.55;;;3.97;;
78716;SDS011;68045;50.042;14.432;2024-02-14T10:22:50;8.43;;;4.57;;
78716;SDS011;68045;50.042;14.432;2024-02-14T10:26:51;15.98;;;4.85;;
78716;SDS011;68045;50.042;14.432;2024-02-14T10:30:54;9.57;;;4.18;;
78716;SDS011;68045;50.042;14.432;2024-02-14T10:34:55;8.50;;;4.65;;
78716;SDS011;68045;50.042;14.432;2024-02-14T10:38:55;11.40;;;4.95;;
78716;SDS011;68045;50.042;14.432;2024-02-14T10:42:58;8.25;;;4.65;;
78716;SDS011;68045;50.042;14.432;2024-02-14T10:46:59;7.97;;;4.47;;
78716;SDS011;68045;50.042;14.432;2024-02-14T10:51:03;10.02;;;5.05;;
78716;SDS011;68045;50.042;14.432;2024-02-14T10:55:07;10.82;;;4.90;;
78716;SDS011;68045;50.042;14.432;2024-02-14T10:59:13;6.75;;;3.67;;
78716;SDS011;68045;50.042;14.432;2024-02-14T11:03:21;8.25;;;4.25;;
78716;SDS011;68045;50.042;14.432;2024-02-14T11:07:23;11.18;;;5.15;;
78716;SDS011;68045;50.042;14.432;2024-02-14T11:11:25;12.32;;;4.07;;
78716;SDS011;68045;50.042;14.432;2024-02-14T11:15:28;8.55;;;4.38;;
78716;SDS011;68045;50.042;14.432;2024-02-14T11:19:32;9.40;;;4.55;;
78716;SDS011;68045;50.042;14.432;2024-02-14T11:23:35;11.00;;;4.35;;
78716;SDS011;68045;50.042;14.432;2024-02-14T11:27:36;9.30;;;3.90;;
78716;SDS011;68045;50.042;14.432;2024-02-14T11:31:46;5.90;;;3.33;;
78716;SDS011;68045;50.042;14.432;2024-02-14T11:35:53;6.20;;;2.55;;
78716;SDS011;68045;50.042;14.432;2024-02-14T11:39:55;7.07;;;2.92;;
78716;SDS011;68045;50.042;14.432;2024-02-14T11:44:00;8.68;;;2.72;;
78716;SDS011;68045;50.042;14.432;2024-02-14T11:48:04;5.22;;;2.35;;
78716;SDS011;68045;50.042;14.432;2024-02-14T11:52:09;4.85;;;2.58;;
78716;SDS011;68045;50.042;14.432;2024-02-14T11:56:11;7.55;;;2.08;;
78716;SDS011;68045;50.042;14.432;2024-02-14T12:00:17;4.28;;;1.75;;
78716;SDS011;68045;50.042;14.432;2024-02-14T12:04:19;3.97;;;1.80;;
78716;SDS011;68045;50.042;14.432;2024-02-14T12:08:20;5.00;;;1.25;;
78716;SDS011;68045;50.042;14.432;2024-02-14T12:12:22;4.90;;;1.80;;
78716;SDS011;68045;50.042;14.432;2024-02-14T12:16:24;2.90;;;1.60;;
78716;SDS011;68045;50.042;14.432;2024-02-14T12:20:26;5.32;;;1.92;;
78716;SDS011;68045;50.042;14.432;2024-02-14T12:24:27;3.72;;;1.60;;
78716;SDS011;68045;50.042;14.432;2024-02-14T12:28:29;5.68;;;1.40;;
78716;SDS011;68045;50.042;14.432;2024-02-14T12:32:31;8.93;;;1.88;;
78716;SDS011;68045;50.042;14.432;2024-02-14T12:36:33;4.80;;;1.95;;
78716;SDS011;68045;50.042;14.432;2024-02-14T12:40:34;5.85;;;2.17;;
78716;SDS011;68045;50.042;14.432;2024-02-14T12:44:36;5.55;;;1.75;;
78716;SDS011;68045;50.042;14.432;2024-02-14T12:52:40;4.25;;;1.88;;
78716;SDS011;68045;50.042;14.432;2024-02-14T12:56:41;4.38;;;2.03;;
78716;SDS011;68045;50.042;14.432;2024-02-14T13:00:42;3.17;;;1.77;;
78716;SDS011;68045;50.042;14.432;2024-02-14T13:04:47;5.15;;;2.05;;
78716;SDS011;68045;50.042;14.432;2024-02-14T13:08:49;4.72;;;2.08;;
78716;SDS011;68045;50.042;14.432;2024-02-14T13:12:50;3.28;;;1.75;;
78716;SDS011;68045;50.042;14.432;2024-02-14T13:16:51;3.78;;;2.00;;
78716;SDS011;68045;50.042;14.432;2024-02-14T13:20:53;2.90;;;1.58;;
78716;SDS011;68045;50.042;14.432;2024-02-14T13:25:00;4.95;;;2.13;;
78716;SDS011;68045;50.042;14.432;2024-02-14T13:29:02;4.03;;;2.20;;
78716;SDS011;68045;50.042;14.432;2024-02-14T13:33:04;4.75;;;1.98;;
78716;SDS011;68045;50.042;14.432;2024-02-14T13:37:05;3.40;;;1.70;;
78716;SDS011;68045;50.042;14.432;2024-02-14T13:41:09;4.78;;;2.05;;
78716;SDS011;68045;50.042;14.432;2024-02-14T13:45:10;4.10;;;2.15;;
78716;SDS011;68045;50.042;14.432;2024-02-14T13:49:12;6.45;;;2.25;;
78716;SDS011;68045;50.042;14.432;2024-02-14T13:53:16;4.25;;;2.47;;
78716;SDS011;68045;50.042;14.432;2024-02-14T13:57:17;3.65;;;1.52;;
78716;SDS011;68045;50.042;14.432;2024-02-14T14:01:19;3.20;;;1.77;;
78716;SDS011;68045;50.042;14.432;2024-02-14T14:05:20;2.92;;;1.60;;
78716;SDS011;68045;50.042;14.432;2024-02-14T14:09:22;3.25;;;1.83;;
78716;SDS011;68045;50.042;14.432;2024-02-14T14:13:23;3.65;;;1.60;;
78716;SDS011;68045;50.042;14.432;2024-02-14T14:17:24;5.07;;;1.92;;
78716;SDS011;68045;50.042;14.432;2024-02-14T14:21:25;2.65;;;1.27;;
78716;SDS011;68045;50.042;14.432;2024-02-14T14:25:26;5.65;;;1.92;;
78716;SDS011;68045;50.042;14.432;2024-02-14T14:29:28;3.08;;;1.80;;
78716;SDS011;68045;50.042;14.432;2024-02-14T14:33:29;6.43;;;1.40;;
78716;SDS011;68045;50.042;14.432;2024-02-14T14:37:32;4.43;;;1.70;;
78716;SDS011;68045;50.042;14.432;2024-02-14T14:41:33;2.95;;;1.67;;
78716;SDS011;68045;50.042;14.432;2024-02-14T14:45:35;2.95;;;1.58;;
78716;SDS011;68045;50.042;14.432;2024-02-14T14:49:39;3.05;;;1.80;;
78716;SDS011;68045;50.042;14.432;2024-02-14T14:53:40;1.67;;;1.05;;
78716;SDS011;68045;50.042;14.432;2024-02-14T14:57:41;2.22;;;1.33;;
78716;SDS011;68045;50.042;14.432;2024-02-14T15:01:44;3.00;;;1.63;;
78716;SDS011;68045;50.042;14.432;2024-02-14T15:05:45;4.00;;;1.65;;
78716;SDS011;68045;50.042;14.432;2024-02-14T15:09:46;2.03;;;1.20;;
78716;SDS011;68045;50.042;14.432;2024-02-14T15:13:47;4.07;;;1.38;;
78716;SDS011;68045;50.042;14.432;2024-02-14T15:17:48;3.10;;;1.73;;
78716;SDS011;68045;50.042;14.432;2024-02-14T15:21:50;4.38;;;1.92;;
78716;SDS011;68045;50.042;14.432;2024-02-14T15:25:51;4.25;;;2.13;;
78716;SDS011;68045;50.042;14.432;2024-02-14T15:29:52;2.92;;;1.50;;
78716;SDS011;68045;50.042;14.432;2024-02-14T15:34:13;3.28;;;1.80;;
78716;SDS011;68045;50.042;14.432;2024-02-14T15:38:16;4.20;;;1.83;;
78716;SDS011;68045;50.042;14.432;2024-02-14T15:42:19;5.97;;;2.10;;
78716;SDS011;68045;50.042;14.432;2024-02-14T15:46:20;3.83;;;1.88;;
78716;SDS011;68045;50.042;14.432;2024-02-14T15:50:21;3.13;;;1.83;;
78716;SDS011;68045;50.042;14.432;2024-02-14T15:54:24;3.45;;;2.00;;
78716;SDS011;68045;50.042;14.432;2024-02-14T15:58:25;3.42;;;1.88;;
78716;SDS011;68045;50.042;14.432;2024-02-14T16:02:26;5.10;;;1.90;;
78716;SDS011;68045;50.042;14.432;2024-02-14T16:06:27;3.58;;;2.05;;
78716;SDS011;68045;50.042;14.432;2024-02-14T16:10:29;4.40;;;2.13;;
78716;SDS011;68045;50.042;14.432;2024-02-14T16:14:30;5.20;;;2.15;;
78716;SDS011;68045;50.042;14.432;2024-02-14T16:22:34;6.40;;;2.50;;
78716;SDS011;68045;50.042;14.432;2024-02-14T16:26:36;6.93;;;2.80;;
78716;SDS011;68045;50.042;14.432;2024-02-14T16:30:37;3.75;;;2.40;;
78716;SDS011;68045;50.042;14.432;2024-02-14T16:34:42;8.25;;;2.90;;
78716;SDS011;68045;50.042;14.432;2024-02-14T16:38:49;6.65;;;2.50;;
78716;SDS011;68045;50.042;14.432;2024-02-14T16:42:50;5.15;;;2.63;;
78716;SDS011;68045;50.042;14.432;2024-02-14T16:46:52;5.32;;;2.75;;
78716;SDS011;68045;50.042;14.432;2024-02-14T16:50:54;5.78;;;2.60;;
78716;SDS011;68045;50.042;14.432;2024-02-14T16:54:56;5.00;;;2.35;;
78716;SDS011;68045;50.042;14.432;2024-02-14T17:03:00;10.88;;;3.03;;
78716;SDS011;68045;50.042;14.432;2024-02-14T17:07:02;4.60;;;2.30;;
78716;SDS011;68045;50.042;14.432;2024-02-14T17:11:03;6.30;;;2.92;;
78716;SDS011;68045;50.042;14.432;2024-02-14T17:15:04;4.03;;;2.42;;
78716;SDS011;68045;50.042;14.432;2024-02-14T17:19:06;5.85;;;2.78;;
78716;SDS011;68045;50.042;14.432;2024-02-14T17:23:07;5.35;;;2.63;;
78716;SDS011;68045;50.042;14.432;2024-02-14T17:27:08;8.13;;;3.05;;
78716;SDS011;68045;50.042;14.432;2024-02-14T17:31:10;8.63;;;2.90;;
78716;SDS011;68045;50.042;14.432;2024-02-14T17:35:11;6.93;;;2.90;;
78716;SDS011;68045;50.042;14.432;2024-02-14T17:39:12;3.45;;;2.35;;
78716;SDS011;68045;50.042;14.432;2024-02-14T17:43:13;6.38;;;3.08;;
78716;SDS011;68045;50.042;14.432;2024-02-14T17:47:14;4.50;;;2.95;;
78716;SDS011;68045;50.042;14.432;2024-02-14T17:51:16;10.52;;;3.15;;
78716;SDS011;68045;50.042;14.432;2024-02-14T17:55:17;8.25;;;2.90;;
78716;SDS011;68045;50.042;14.432;2024-02-14T17:59:19;5.03;;;3.22;;
78716;SDS011;68045;50.042;14.432;2024-02-14T18:03:21;4.88;;;2.47;;
78716;SDS011;68045;50.042;14.432;2024-02-14T18:07:22;8.10;;;3.40;;
78716;SDS011;68045;50.042;14.432;2024-02-14T18:11:24;5.13;;;2.70;;
78716;SDS011;68045;50.042;14.432;2024-02-14T18:15:26;6.53;;;2.70;;
78716;SDS011;68045;50.042;14.432;2024-02-14T18:19:27;6.28;;;3.28;;
78716;SDS011;68045;50.042;14.432;2024-02-14T18:23:29;7.22;;;2.88;;
78716;SDS011;68045;50.042;14.432;2024-02-14T18:27:30;5.38;;;2.72;;
78716;SDS011;68045;50.042;14.432;2024-02-14T18:31:32;7.30;;;3.97;;
78716;SDS011;68045;50.042;14.432;2024-02-14T18:35:34;9.10;;;4.10;;
78716;SDS011;68045;50.042;14.432;2024-02-14T18:39:36;4.70;;;3.15;;
78716;SDS011;68045;50.042;14.432;2024-02-14T18:43:41;7.38;;;3.80;;
78716;SDS011;68045;50.042;14.432;2024-02-14T18:47:42;5.93;;;3.50;;
78716;SDS011;68045;50.042;14.432;2024-02-14T18:51:43;5.20;;;3.08;;
78716;SDS011;68045;50.042;14.432;2024-02-14T18:55:44;8.43;;;4.18;;
78716;SDS011;68045;50.042;14.432;2024-02-14T18:59:45;7.32;;;3.85;;
78716;SDS011;68045;50.042;14.432;2024-02-14T19:03:46;10.15;;;4.40;;
78716;SDS011;68045;50.042;14.432;2024-02-14T19:07:47;6.05;;;3.28;;
78716;SDS011;68045;50.042;14.432;2024-02-14T19:11:48;6.50;;;3.22;;
78716;SDS011;68045;50.042;14.432;2024-02-14T19:15:49;6.05;;;3.45;;
78716;SDS011;68045;50.042;14.432;2024-02-14T19:19:50;8.82;;;4.15;;
78716;SDS011;68045;50.042;14.432;2024-02-14T19:23:51;6.57;;;3.92;;
78716;SDS011;68045;50.042;14.432;2024-02-14T19:27:52;10.63;;;4.85;;
78716;SDS011;68045;50.042;14.432;2024-02-14T19:31:53;9.55;;;3.58;;
78716;SDS011;68045;50.042;14.432;2024-02-14T19:35:54;6.88;;;4.10;;
78716;SDS011;68045;50.042;14.432;2024-02-14T19:39:56;10.32;;;5.07;;
78716;SDS011;68045;50.042;14.432;2024-02-14T19:43:59;9.80;;;4.68;;
78716;SDS011;68045;50.042;14.432;2024-02-14T19:48:00;10.55;;;4.95;;
78716;SDS011;68045;50.042;14.432;2024-02-14T19:52:02;14.30;;;3.97;;
78716;SDS011;68045;50.042;14.432;2024-02-14T19:56:04;8.32;;;4.40;;
78716;SDS011;68045;50.042;14.432;2024-02-14T20:00:06;5.55;;;3.47;;
78716;SDS011;68045;50.042;14.432;2024-02-14T20:04:13;8.88;;;4.32;;
78716;SDS011;68045;50.042;14.432;2024-02-14T20:08:15;9.18;;;4.55;;
78716;SDS011;68045;50.042;14.432;2024-02-14T20:12:18;10.75;;;4.30;;
78716;SDS011;68045;50.042;14.432;2024-02-14T20:16:19;7.65;;;3.50;;
78716;SDS011;68045;50.042;14.432;2024-02-14T20:20:21;8.32;;;4.75;;
78716;SDS011;68045;50.042;14.432;2024-02-14T20:24:23;10.45;;;4.07;;
78716;SDS011;68045;50.042;14.432;2024-02-14T20:28:24;7.57;;;4.43;;
78716;SDS011;68045;50.042;14.432;2024-02-14T20:32:25;8.85;;;4.40;;
78716;SDS011;68045;50.042;14.432;2024-02-14T20:36:27;10.10;;;5.50;;
78716;SDS011;68045;50.042;14.432;2024-02-14T20:40:28;10.18;;;4.00;;
78716;SDS011;68045;50.042;14.432;2024-02-14T20:44:32;11.55;;;4.97;;
78716;SDS011;68045;50.042;14.432;2024-02-14T20:48:34;8.38;;;4.22;;
78716;SDS011;68045;50.042;14.432;2024-02-14T20:52:36;9.65;;;4.63;;
78716;SDS011;68045;50.042;14.432;2024-02-14T20:56:37;13.48;;;5.85;;
78716;SDS011;68045;50.042;14.432;2024-02-14T21:00:38;14.77;;;4.38;;
78716;SDS011;68045;50.042;14.432;2024-02-14T21:04:40;11.45;;;4.78;;
78716;SDS011;68045;50.042;14.432;2024-02-14T21:08:41;9.75;;;5.28;;
78716;SDS011;68045;50.042;14.432;2024-02-14T21:12:42;11.05;;;5.43;;
78716;SDS011;68045;50.042;14.432;2024-02-14T21:16:43;8.98;;;4.88;;
78716;SDS011;68045;50.042;14.432;2024-02-14T21:20:44;10.77;;;4.90;;
78716;SDS011;68045;50.042;14.432;2024-02-14T21:24:46;12.85;;;5.35;;
78716;SDS011;68045;50.042;14.432;2024-02-14T21:28:48;9.63;;;5.18;;
78716;SDS011;68045;50.042;14.432;2024-02-14T21:32:49;12.38;;;4.60;;
78716;SDS011;68045;50.042;14.432;2024-02-14T21:36:50;9.52;;;4.47;;
78716;SDS011;68045;50.042;14.432;2024-02-14T21:40:51;12.25;;;4.25;;
78716;SDS011;68045;50.042;14.432;2024-02-14T21:44:52;11.57;;;5.07;;
78716;SDS011;68045;50.042;14.432;2024-02-14T21:48:55;10.60;;;5.32;;
78716;SDS011;68045;50.042;14.432;2024-02-14T21:52:57;8.90;;;5.43;;
78716;SDS011;68045;50.042;14.432;2024-02-14T21:57:01;13.40;;;5.32;;
78716;SDS011;68045;50.042;14.432;2024-02-14T22:01:02;9.68;;;4.30;;
78716;SDS011;68045;50.042;14.432;2024-02-14T22:05:03;11.70;;;5.75;;
78716;SDS011;68045;50.042;14.432;2024-02-14T22:09:06;9.00;;;5.13;;
78716;SDS011;68045;50.042;14.432;2024-02-14T22:13:08;10.57;;;5.00;;
78716;SDS011;68045;50.042;14.432;2024-02-14T22:17:10;16.27;;;5.15;;
78716;SDS011;68045;50.042;14.432;2024-02-14T22:21:14;8.13;;;4.43;;
78716;SDS011;68045;50.042;14.432;2024-02-14T22:25:17;13.18;;;5.20;;
78716;SDS011;68045;50.042;14.432;2024-02-14T22:29:20;10.70;;;6.13;;
78716;SDS011;68045;50.042;14.432;2024-02-14T22:33:21;11.73;;;4.63;;
78716;SDS011;68045;50.042;14.432;2024-02-14T22:37:22;10.23;;;4.90;;
78716;SDS011;68045;50.042;14.432;2024-02-14T22:41:23;9.18;;;4.97;;
78716;SDS011;68045;50.042;14.432;2024-02-14T22:45:25;9.70;;;5.15;;
78716;SDS011;68045;50.042;14.432;2024-02-14T22:49:28;11.93;;;5.32;;
78716;SDS011;68045;50.042;14.432;2024-02-14T22:53:28;8.27;;;4.55;;
78716;SDS011;68045;50.042;14.432;2024-02-14T22:57:29;8.02;;;4.80;;
78716;SDS011;68045;50.042;14.432;2024-02-14T23:01:32;8.02;;;4.53;;
78716;SDS011;68045;50.042;14.432;2024-02-14T23:05:34;13.80;;;4.80;;
78716;SDS011;68045;50.042;14.432;2024-02-14T23:09:36;11.02;;;4.65;;
78716;SDS011;68045;50.042;14.432;2024-02-14T23:13:38;8.88;;;4.22;;
78716;SDS011;68045;50.042;14.432;2024-02-14T23:17:39;6.40;;;3.75;;
78716;SDS011;68045;50.042;14.432;2024-02-14T23:25:52;13.60;;;4.25;;
78716;SDS011;68045;50.042;14.432;2024-02-14T23:29:53;9.20;;;3.80;;
78716;SDS011;68045;50.042;14.432;2024-02-14T23:33:54;9.80;;;4.60;;
78716;SDS011;68045;50.042;14.432;2024-02-14T23:37:57;6.70;;;4.00;;
78716;SDS011;68045;50.042;14.432;2024-02-14T23:41:58;10.35;;;3.92;;
78716;SDS011;68045;50.042;14.432;2024-02-14T23:45:59;9.02;;;4.13;;
78716;SDS011;68045;50.042;14.432;2024-02-14T23:50:01;6.05;;;3.38;;
78716;SDS011;68045;50.042;14.432;2024-02-14T23:54:02;8.80;;;4.05;;
78716;SDS011;68045;50.042;14.432;2024-02-14T23:58:05;8.23;;;3.72;;
